sensor_id;sensor_type;location;lat;lon;timestamp;P1;durP1;ratioP1;P2;durP2;ratioP2
8478;SDS011;4276;49.354;6.804;2023-08-01T00:01:10;6.43;;;5.28;;
8478;SDS011;4276;49.354;6.804;2023-08-01T00:03:37;5.80;;;5.20;;
8478;SDS011;4276;49.354;6.804;2023-08-01T00:06:04;5.53;;;4.90;;
8478;SDS011;4276;49.354;6.804;2023-08-01T00:08:35;7.43;;;5.30;;
8478;SDS011;4276;49.354;6.804;2023-08-01T00:11:02;8.40;;;5.32;;
8478;SDS011;4276;49.354;6.804;2023-08-01T00:13:31;5.75;;;5.13;;
8478;SDS011;4276;49.354;6.804;2023-08-01T00:16:00;5.47;;;4.72;;
8478;SDS011;4276;49.354;6.804;2023-08-01T00:18:33;6.55;;;5.20;;
8478;SDS011;4276;49.354;6.804;2023-08-01T00:20:59;6.45;;;5.18;;
8478;SDS011;4276;49.354;6.804;2023-08-01T00:23:26;5.88;;;4.95;;
8478;SDS011;4276;49.354;6.804;2023-08-01T00:25:52;9.48;;;5.82;;
8478;SDS011;4276;49.354;6.804;2023-08-01T00:28:21;5.13;;;4.50;;
8478;SDS011;4276;49.354;6.804;2023-08-01T00:30:51;5.60;;;5.03;;
8478;SDS011;4276;49.354;6.804;2023-08-01T00:33:27;5.70;;;5.07;;
8478;SDS011;4276;49.354;6.804;2023-08-01T00:35:54;5.07;;;4.53;;
8478;SDS011;4276;49.354;6.804;2023-08-01T00:38:23;5.30;;;4.57;;
8478;SDS011;4276;49.354;6.804;2023-08-01T00:40:50;6.55;;;4.75;;
8478;SDS011;4276;49.354;6.804;2023-08-01T00:43:16;5.60;;;5.07;;
8478;SDS011;4276;49.354;6.804;2023-08-01T00:45:48;7.57;;;4.68;;
8478;SDS011;4276;49.354;6.804;2023-08-01T00:48:15;5.90;;;4.60;;
8478;SDS011;4276;49.354;6.804;2023-08-01T00:50:42;7.70;;;4.53;;
8478;SDS011;4276;49.354;6.804;2023-08-01T00:53:10;6.03;;;5.35;;
8478;SDS011;4276;49.354;6.804;2023-08-01T00:55:38;5.60;;;4.40;;
8478;SDS011;4276;49.354;6.804;2023-08-01T00:58:04;6.43;;;4.57;;
8478;SDS011;4276;49.354;6.804;2023-08-01T01:00:31;5.45;;;4.40;;
8478;SDS011;4276;49.354;6.804;2023-08-01T01:02:59;6.65;;;5.22;;
8478;SDS011;4276;49.354;6.804;2023-08-01T01:05:26;5.20;;;4.20;;
8478;SDS011;4276;49.354;6.804;2023-08-01T01:07:53;5.25;;;4.75;;
8478;SDS011;4276;49.354;6.804;2023-08-01T01:10:20;6.45;;;4.72;;
8478;SDS011;4276;49.354;6.804;2023-08-01T01:12:50;6.65;;;4.80;;
8478;SDS011;4276;49.354;6.804;2023-08-01T01:15:16;5.30;;;4.80;;
8478;SDS011;4276;49.354;6.804;2023-08-01T01:17:43;5.47;;;4.43;;
8478;SDS011;4276;49.354;6.804;2023-08-01T01:20:10;6.60;;;4.60;;
8478;SDS011;4276;49.354;6.804;2023-08-01T01:22:37;7.07;;;5.15;;
8478;SDS011;4276;49.354;6.804;2023-08-01T01:25:05;7.13;;;4.68;;
8478;SDS011;4276;49.354;6.804;2023-08-01T01:27:33;7.82;;;4.95;;
8478;SDS011;4276;49.354;6.804;2023-08-01T01:30:04;4.80;;;4.32;;
8478;SDS011;4276;49.354;6.804;2023-08-01T01:32:31;6.80;;;4.50;;
8478;SDS011;4276;49.354;6.804;2023-08-01T01:34:58;5.20;;;4.70;;
8478;SDS011;4276;49.354;6.804;2023-08-01T01:37:25;6.97;;;4.40;;
8478;SDS011;4276;49.354;6.804;2023-08-01T01:39:51;5.15;;;4.40;;
8478;SDS011;4276;49.354;6.804;2023-08-01T01:42:18;6.18;;;4.90;;
8478;SDS011;4276;49.354;6.804;2023-08-01T01:44:44;6.15;;;4.90;;
8478;SDS011;4276;49.354;6.804;2023-08-01T01:47:11;4.80;;;4.40;;
8478;SDS011;4276;49.354;6.804;2023-08-01T01:49:37;5.20;;;4.47;;
8478;SDS011;4276;49.354;6.804;2023-08-01T01:52:04;5.22;;;4.72;;
8478;SDS011;4276;49.354;6.804;2023-08-01T01:54:31;4.65;;;3.92;;
8478;SDS011;4276;49.354;6.804;2023-08-01T01:56:57;6.25;;;4.05;;
8478;SDS011;4276;49.354;6.804;2023-08-01T01:59:24;4.68;;;4.20;;
8478;SDS011;4276;49.354;6.804;2023-08-01T02:01:50;4.70;;;3.95;;
8478;SDS011;4276;49.354;6.804;2023-08-01T02:04:17;4.65;;;4.25;;
8478;SDS011;4276;49.354;6.804;2023-08-01T02:06:44;4.70;;;4.22;;
8478;SDS011;4276;49.354;6.804;2023-08-01T02:09:11;5.00;;;4.47;;
8478;SDS011;4276;49.354;6.804;2023-08-01T02:11:37;5.00;;;4.20;;
8478;SDS011;4276;49.354;6.804;2023-08-01T02:14:04;5.38;;;4.22;;
8478;SDS011;4276;49.354;6.804;2023-08-01T02:16:30;4.03;;;3.65;;
8478;SDS011;4276;49.354;6.804;2023-08-01T02:18:57;8.23;;;4.50;;
8478;SDS011;4276;49.354;6.804;2023-08-01T02:21:23;5.55;;;3.97;;
8478;SDS011;4276;49.354;6.804;2023-08-01T02:23:50;5.38;;;3.88;;
8478;SDS011;4276;49.354;6.804;2023-08-01T02:26:17;9.57;;;4.30;;
8478;SDS011;4276;49.354;6.804;2023-08-01T02:28:43;4.63;;;3.83;;
8478;SDS011;4276;49.354;6.804;2023-08-01T02:31:10;5.75;;;3.80;;
8478;SDS011;4276;49.354;6.804;2023-08-01T02:33:37;3.38;;;3.08;;
8478;SDS011;4276;49.354;6.804;2023-08-01T02:36:04;4.50;;;3.40;;
8478;SDS011;4276;49.354;6.804;2023-08-01T02:38:30;4.82;;;3.50;;
8478;SDS011;4276;49.354;6.804;2023-08-01T02:40:57;5.18;;;3.50;;
8478;SDS011;4276;49.354;6.804;2023-08-01T02:43:24;4.30;;;3.33;;
8478;SDS011;4276;49.354;6.804;2023-08-01T02:45:51;3.30;;;3.00;;
8478;SDS011;4276;49.354;6.804;2023-08-01T02:48:17;4.43;;;3.50;;
8478;SDS011;4276;49.354;6.804;2023-08-01T02:50:45;5.32;;;3.47;;
8478;SDS011;4276;49.354;6.804;2023-08-01T02:53:12;4.28;;;2.90;;
8478;SDS011;4276;49.354;6.804;2023-08-01T02:55:40;4.95;;;3.63;;
8478;SDS011;4276;49.354;6.804;2023-08-01T02:58:07;6.78;;;3.85;;
8478;SDS011;4276;49.354;6.804;2023-08-01T03:00:37;4.38;;;3.38;;
8478;SDS011;4276;49.354;6.804;2023-08-01T03:03:07;6.88;;;3.47;;
8478;SDS011;4276;49.354;6.804;2023-08-01T03:05:36;5.15;;;3.38;;
8478;SDS011;4276;49.354;6.804;2023-08-01T03:08:06;4.03;;;3.60;;
8478;SDS011;4276;49.354;6.804;2023-08-01T03:10:32;4.32;;;3.90;;
8478;SDS011;4276;49.354;6.804;2023-08-01T03:13:02;4.15;;;3.75;;
8478;SDS011;4276;49.354;6.804;2023-08-01T03:15:29;4.30;;;3.90;;
8478;SDS011;4276;49.354;6.804;2023-08-01T03:17:55;6.22;;;3.60;;
8478;SDS011;4276;49.354;6.804;2023-08-01T03:20:22;4.90;;;4.40;;
8478;SDS011;4276;49.354;6.804;2023-08-01T03:22:49;4.45;;;4.05;;
8478;SDS011;4276;49.354;6.804;2023-08-01T03:25:15;4.60;;;3.53;;
8478;SDS011;4276;49.354;6.804;2023-08-01T03:27:44;4.10;;;3.70;;
8478;SDS011;4276;49.354;6.804;2023-08-01T03:30:11;4.80;;;4.03;;
8478;SDS011;4276;49.354;6.804;2023-08-01T03:32:39;4.22;;;3.63;;
8478;SDS011;4276;49.354;6.804;2023-08-01T03:35:06;4.95;;;4.18;;
8478;SDS011;4276;49.354;6.804;2023-08-01T03:37:33;4.68;;;4.20;;
8478;SDS011;4276;49.354;6.804;2023-08-01T03:40:02;5.47;;;3.90;;
8478;SDS011;4276;49.354;6.804;2023-08-01T03:42:29;4.32;;;3.80;;
8478;SDS011;4276;49.354;6.804;2023-08-01T03:44:55;4.50;;;4.10;;
8478;SDS011;4276;49.354;6.804;2023-08-01T03:47:22;4.60;;;4.20;;
8478;SDS011;4276;49.354;6.804;2023-08-01T03:49:49;4.30;;;3.90;;
8478;SDS011;4276;49.354;6.804;2023-08-01T03:52:16;4.88;;;4.13;;
8478;SDS011;4276;49.354;6.804;2023-08-01T03:54:42;5.05;;;4.43;;
8478;SDS011;4276;49.354;6.804;2023-08-01T03:57:09;6.60;;;4.93;;
8478;SDS011;4276;49.354;6.804;2023-08-01T03:59:36;4.43;;;4.03;;
8478;SDS011;4276;49.354;6.804;2023-08-01T04:02:03;4.80;;;4.40;;
8478;SDS011;4276;49.354;6.804;2023-08-01T04:04:30;4.40;;;3.90;;
8478;SDS011;4276;49.354;6.804;2023-08-01T04:06:57;7.22;;;4.50;;
8478;SDS011;4276;49.354;6.804;2023-08-01T04:09:24;6.20;;;4.45;;
8478;SDS011;4276;49.354;6.804;2023-08-01T04:11:50;4.55;;;3.78;;
8478;SDS011;4276;49.354;6.804;2023-08-01T04:14:17;4.78;;;3.50;;
8478;SDS011;4276;49.354;6.804;2023-08-01T04:16:43;4.10;;;3.67;;
8478;SDS011;4276;49.354;6.804;2023-08-01T04:19:10;4.10;;;3.80;;
8478;SDS011;4276;49.354;6.804;2023-08-01T04:21:37;4.43;;;4.03;;
8478;SDS011;4276;49.354;6.804;2023-08-01T04:24:03;4.70;;;4.00;;
8478;SDS011;4276;49.354;6.804;2023-08-01T04:26:30;4.32;;;3.90;;
8478;SDS011;4276;49.354;6.804;2023-08-01T04:28:57;4.35;;;3.95;;
8478;SDS011;4276;49.354;6.804;2023-08-01T04:31:23;4.28;;;3.88;;
8478;SDS011;4276;49.354;6.804;2023-08-01T04:33:50;3.60;;;3.30;;
8478;SDS011;4276;49.354;6.804;2023-08-01T04:36:16;3.42;;;3.13;;
8478;SDS011;4276;49.354;6.804;2023-08-01T04:38:43;3.50;;;3.20;;
8478;SDS011;4276;49.354;6.804;2023-08-01T04:41:09;3.83;;;3.53;;
8478;SDS011;4276;49.354;6.804;2023-08-01T04:43:36;3.70;;;3.40;;
8478;SDS011;4276;49.354;6.804;2023-08-01T04:46:02;4.18;;;3.78;;
8478;SDS011;4276;49.354;6.804;2023-08-01T04:48:29;3.90;;;3.58;;
8478;SDS011;4276;49.354;6.804;2023-08-01T04:50:56;3.78;;;3.47;;
8478;SDS011;4276;49.354;6.804;2023-08-01T04:53:24;4.05;;;3.60;;
8478;SDS011;4276;49.354;6.804;2023-08-01T04:55:51;3.55;;;3.25;;
8478;SDS011;4276;49.354;6.804;2023-08-01T04:58:18;4.65;;;3.28;;
8478;SDS011;4276;49.354;6.804;2023-08-01T05:00:44;3.50;;;3.20;;
8478;SDS011;4276;49.354;6.804;2023-08-01T05:03:11;2.88;;;2.65;;
8478;SDS011;4276;49.354;6.804;2023-08-01T05:05:38;3.65;;;2.70;;
8478;SDS011;4276;49.354;6.804;2023-08-01T05:08:05;3.75;;;2.95;;
8478;SDS011;4276;49.354;6.804;2023-08-01T05:10:31;3.10;;;2.80;;
8478;SDS011;4276;49.354;6.804;2023-08-01T05:12:58;3.13;;;2.83;;
8478;SDS011;4276;49.354;6.804;2023-08-01T05:15:25;3.03;;;2.70;;
8478;SDS011;4276;49.354;6.804;2023-08-01T05:17:56;2.65;;;2.45;;
8478;SDS011;4276;49.354;6.804;2023-08-01T05:20:23;4.28;;;2.40;;
8478;SDS011;4276;49.354;6.804;2023-08-01T05:22:49;3.00;;;2.58;;
8478;SDS011;4276;49.354;6.804;2023-08-01T05:25:21;2.60;;;2.40;;
8478;SDS011;4276;49.354;6.804;2023-08-01T05:27:48;2.33;;;2.20;;
8478;SDS011;4276;49.354;6.804;2023-08-01T05:30:14;2.13;;;1.55;;
8478;SDS011;4276;49.354;6.804;2023-08-01T05:32:41;1.80;;;1.70;;
8478;SDS011;4276;49.354;6.804;2023-08-01T05:35:09;1.65;;;1.55;;
8478;SDS011;4276;49.354;6.804;2023-08-01T05:37:36;1.73;;;1.63;;
8478;SDS011;4276;49.354;6.804;2023-08-01T05:40:03;1.70;;;1.60;;
8478;SDS011;4276;49.354;6.804;2023-08-01T05:42:30;2.15;;;1.33;;
8478;SDS011;4276;49.354;6.804;2023-08-01T05:44:57;1.50;;;1.40;;
8478;SDS011;4276;49.354;6.804;2023-08-01T05:47:23;1.52;;;1.40;;
8478;SDS011;4276;49.354;6.804;2023-08-01T05:49:50;1.40;;;1.30;;
8478;SDS011;4276;49.354;6.804;2023-08-01T05:52:17;2.50;;;1.30;;
8478;SDS011;4276;49.354;6.804;2023-08-01T05:54:43;1.13;;;1.13;;
8478;SDS011;4276;49.354;6.804;2023-08-01T05:57:10;1.50;;;1.40;;
8478;SDS011;4276;49.354;6.804;2023-08-01T05:59:37;2.03;;;1.20;;
8478;SDS011;4276;49.354;6.804;2023-08-01T06:02:03;1.55;;;1.00;;
8478;SDS011;4276;49.354;6.804;2023-08-01T06:04:33;2.28;;;1.30;;
8478;SDS011;4276;49.354;6.804;2023-08-01T06:07:00;2.05;;;1.27;;
8478;SDS011;4276;49.354;6.804;2023-08-01T06:09:26;0.90;;;0.90;;
8478;SDS011;4276;49.354;6.804;2023-08-01T06:11:53;1.67;;;1.58;;
8478;SDS011;4276;49.354;6.804;2023-08-01T06:14:19;1.77;;;1.55;;
8478;SDS011;4276;49.354;6.804;2023-08-01T06:16:46;1.17;;;1.08;;
8478;SDS011;4276;49.354;6.804;2023-08-01T06:19:12;1.10;;;0.98;;
8478;SDS011;4276;49.354;6.804;2023-08-01T06:21:39;0.52;;;0.50;;
8478;SDS011;4276;49.354;6.804;2023-08-01T06:24:06;0.85;;;0.70;;
8478;SDS011;4276;49.354;6.804;2023-08-01T06:26:34;0.70;;;0.70;;
8478;SDS011;4276;49.354;6.804;2023-08-01T06:29:01;2.08;;;1.88;;
8478;SDS011;4276;49.354;6.804;2023-08-01T06:31:27;3.05;;;2.30;;
8478;SDS011;4276;49.354;6.804;2023-08-01T06:33:54;3.08;;;2.78;;
8478;SDS011;4276;49.354;6.804;2023-08-01T06:36:21;5.03;;;3.50;;
8478;SDS011;4276;49.354;6.804;2023-08-01T06:38:47;4.15;;;3.35;;
8478;SDS011;4276;49.354;6.804;2023-08-01T06:41:15;4.75;;;2.90;;
8478;SDS011;4276;49.354;6.804;2023-08-01T06:43:44;3.50;;;2.70;;
8478;SDS011;4276;49.354;6.804;2023-08-01T06:46:11;4.38;;;2.53;;
8478;SDS011;4276;49.354;6.804;2023-08-01T06:48:37;2.85;;;1.65;;
8478;SDS011;4276;49.354;6.804;2023-08-01T06:51:07;3.22;;;2.88;;
8478;SDS011;4276;49.354;6.804;2023-08-01T06:53:33;3.80;;;3.50;;
8478;SDS011;4276;49.354;6.804;2023-08-01T06:56:03;3.67;;;3.10;;
8478;SDS011;4276;49.354;6.804;2023-08-01T06:58:30;4.85;;;3.30;;
8478;SDS011;4276;49.354;6.804;2023-08-01T07:00:56;3.45;;;2.33;;
8478;SDS011;4276;49.354;6.804;2023-08-01T07:03:26;4.88;;;2.78;;
8478;SDS011;4276;49.354;6.804;2023-08-01T07:05:53;3.15;;;2.35;;
8478;SDS011;4276;49.354;6.804;2023-08-01T07:08:21;3.30;;;2.10;;
8478;SDS011;4276;49.354;6.804;2023-08-01T07:10:48;1.95;;;1.77;;
8478;SDS011;4276;49.354;6.804;2023-08-01T07:13:14;2.47;;;1.80;;
8478;SDS011;4276;49.354;6.804;2023-08-01T07:15:42;2.38;;;1.58;;
8478;SDS011;4276;49.354;6.804;2023-08-01T07:18:09;1.17;;;1.08;;
8478;SDS011;4276;49.354;6.804;2023-08-01T07:20:35;1.55;;;1.10;;
8478;SDS011;4276;49.354;6.804;2023-08-01T07:23:02;1.20;;;0.70;;
8478;SDS011;4276;49.354;6.804;2023-08-01T07:25:28;1.70;;;0.80;;
8478;SDS011;4276;49.354;6.804;2023-08-01T07:27:55;0.70;;;0.70;;
8478;SDS011;4276;49.354;6.804;2023-08-01T07:30:21;0.50;;;0.50;;
8478;SDS011;4276;49.354;6.804;2023-08-01T07:32:48;0.70;;;0.70;;
8478;SDS011;4276;49.354;6.804;2023-08-01T07:35:15;0.80;;;0.80;;
8478;SDS011;4276;49.354;6.804;2023-08-01T07:37:41;0.98;;;0.82;;
8478;SDS011;4276;49.354;6.804;2023-08-01T07:40:08;1.75;;;0.70;;
8478;SDS011;4276;49.354;6.804;2023-08-01T07:42:35;0.93;;;0.93;;
8478;SDS011;4276;49.354;6.804;2023-08-01T07:45:02;1.00;;;0.95;;
8478;SDS011;4276;49.354;6.804;2023-08-01T07:47:28;0.98;;;0.90;;
8478;SDS011;4276;49.354;6.804;2023-08-01T07:49:55;0.85;;;0.85;;
8478;SDS011;4276;49.354;6.804;2023-08-01T07:52:22;1.25;;;1.00;;
8478;SDS011;4276;49.354;6.804;2023-08-01T07:54:48;2.78;;;1.27;;
8478;SDS011;4276;49.354;6.804;2023-08-01T07:57:15;3.35;;;1.58;;
8478;SDS011;4276;49.354;6.804;2023-08-01T07:59:42;2.45;;;2.15;;
8478;SDS011;4276;49.354;6.804;2023-08-01T08:02:08;1.90;;;1.60;;
8478;SDS011;4276;49.354;6.804;2023-08-01T08:04:35;2.67;;;1.70;;
8478;SDS011;4276;49.354;6.804;2023-08-01T08:07:01;1.92;;;1.83;;
8478;SDS011;4276;49.354;6.804;2023-08-01T08:09:28;2.00;;;1.80;;
8478;SDS011;4276;49.354;6.804;2023-08-01T08:11:54;4.03;;;2.85;;
8478;SDS011;4276;49.354;6.804;2023-08-01T08:14:23;2.63;;;2.08;;
8478;SDS011;4276;49.354;6.804;2023-08-01T08:16:50;2.70;;;2.22;;
8478;SDS011;4276;49.354;6.804;2023-08-01T08:19:17;3.05;;;2.42;;
8478;SDS011;4276;49.354;6.804;2023-08-01T08:21:43;2.13;;;1.90;;
8478;SDS011;4276;49.354;6.804;2023-08-01T08:24:10;4.22;;;2.40;;
8478;SDS011;4276;49.354;6.804;2023-08-01T08:26:36;3.95;;;2.10;;
8478;SDS011;4276;49.354;6.804;2023-08-01T08:29:06;3.00;;;2.70;;
8478;SDS011;4276;49.354;6.804;2023-08-01T08:31:35;3.17;;;2.90;;
8478;SDS011;4276;49.354;6.804;2023-08-01T08:34:03;2.85;;;2.65;;
8478;SDS011;4276;49.354;6.804;2023-08-01T08:36:29;3.08;;;2.40;;
8478;SDS011;4276;49.354;6.804;2023-08-01T08:38:56;2.47;;;2.28;;
8478;SDS011;4276;49.354;6.804;2023-08-01T08:41:23;3.72;;;2.60;;
8478;SDS011;4276;49.354;6.804;2023-08-01T08:43:53;3.25;;;2.50;;
8478;SDS011;4276;49.354;6.804;2023-08-01T08:46:23;6.05;;;2.88;;
8478;SDS011;4276;49.354;6.804;2023-08-01T08:49:00;3.45;;;2.72;;
8478;SDS011;4276;49.354;6.804;2023-08-01T08:51:27;2.88;;;2.58;;
8478;SDS011;4276;49.354;6.804;2023-08-01T08:53:55;4.80;;;2.75;;
8478;SDS011;4276;49.354;6.804;2023-08-01T08:56:24;3.28;;;2.97;;
8478;SDS011;4276;49.354;6.804;2023-08-01T08:58:51;4.68;;;2.67;;
8478;SDS011;4276;49.354;6.804;2023-08-01T09:01:18;3.70;;;2.28;;
8478;SDS011;4276;49.354;6.804;2023-08-01T09:03:45;2.58;;;2.25;;
8478;SDS011;4276;49.354;6.804;2023-08-01T09:06:13;2.22;;;1.80;;
8478;SDS011;4276;49.354;6.804;2023-08-01T09:08:46;2.75;;;2.47;;
8478;SDS011;4276;49.354;6.804;2023-08-01T09:11:17;2.28;;;1.90;;
8478;SDS011;4276;49.354;6.804;2023-08-01T09:13:44;4.53;;;2.28;;
8478;SDS011;4276;49.354;6.804;2023-08-01T09:16:11;2.60;;;2.35;;
8478;SDS011;4276;49.354;6.804;2023-08-01T09:18:48;3.03;;;2.70;;
8478;SDS011;4276;49.354;6.804;2023-08-01T09:21:19;3.42;;;2.85;;
8478;SDS011;4276;49.354;6.804;2023-08-01T09:23:46;4.65;;;3.05;;
8478;SDS011;4276;49.354;6.804;2023-08-01T09:26:15;4.28;;;2.85;;
8478;SDS011;4276;49.354;6.804;2023-08-01T09:28:42;3.38;;;2.65;;
8478;SDS011;4276;49.354;6.804;2023-08-01T09:31:12;2.40;;;2.20;;
8478;SDS011;4276;49.354;6.804;2023-08-01T09:33:40;4.28;;;2.50;;
8478;SDS011;4276;49.354;6.804;2023-08-01T09:36:08;2.78;;;2.40;;
8478;SDS011;4276;49.354;6.804;2023-08-01T09:38:35;3.47;;;2.50;;
8478;SDS011;4276;49.354;6.804;2023-08-01T09:41:03;3.38;;;2.35;;
8478;SDS011;4276;49.354;6.804;2023-08-01T09:43:34;4.57;;;2.58;;
8478;SDS011;4276;49.354;6.804;2023-08-01T09:46:02;2.70;;;2.25;;
8478;SDS011;4276;49.354;6.804;2023-08-01T09:48:29;4.28;;;2.75;;
8478;SDS011;4276;49.354;6.804;2023-08-01T09:51:06;4.70;;;3.00;;
8478;SDS011;4276;49.354;6.804;2023-08-01T09:53:33;3.45;;;2.78;;
8478;SDS011;4276;49.354;6.804;2023-08-01T09:56:01;2.40;;;2.20;;
8478;SDS011;4276;49.354;6.804;2023-08-01T09:58:33;4.10;;;2.50;;
8478;SDS011;4276;49.354;6.804;2023-08-01T10:01:00;3.35;;;2.30;;
8478;SDS011;4276;49.354;6.804;2023-08-01T10:03:30;2.53;;;2.22;;
8478;SDS011;4276;49.354;6.804;2023-08-01T10:05:57;2.65;;;2.20;;
8478;SDS011;4276;49.354;6.804;2023-08-01T10:08:24;3.33;;;2.22;;
8478;SDS011;4276;49.354;6.804;2023-08-01T10:10:54;2.58;;;2.10;;
8478;SDS011;4276;49.354;6.804;2023-08-01T10:13:23;2.40;;;2.00;;
8478;SDS011;4276;49.354;6.804;2023-08-01T10:15:53;3.72;;;2.25;;
8478;SDS011;4276;49.354;6.804;2023-08-01T10:18:20;3.85;;;2.60;;
8478;SDS011;4276;49.354;6.804;2023-08-01T10:20:47;2.30;;;2.10;;
8478;SDS011;4276;49.354;6.804;2023-08-01T10:23:17;2.78;;;2.53;;
8478;SDS011;4276;49.354;6.804;2023-08-01T10:25:44;4.13;;;2.60;;
8478;SDS011;4276;49.354;6.804;2023-08-01T10:28:11;3.97;;;2.40;;
8478;SDS011;4276;49.354;6.804;2023-08-01T10:30:38;2.45;;;2.22;;
8478;SDS011;4276;49.354;6.804;2023-08-01T10:33:04;3.78;;;2.50;;
8478;SDS011;4276;49.354;6.804;2023-08-01T10:35:34;2.72;;;2.45;;
8478;SDS011;4276;49.354;6.804;2023-08-01T10:40:35;2.58;;;2.28;;
8478;SDS011;4276;49.354;6.804;2023-08-01T10:43:03;2.90;;;2.28;;
8478;SDS011;4276;49.354;6.804;2023-08-01T10:45:31;3.53;;;2.13;;
8478;SDS011;4276;49.354;6.804;2023-08-01T10:48:10;3.95;;;2.22;;
8478;SDS011;4276;49.354;6.804;2023-08-01T10:50:39;3.38;;;2.20;;
8478;SDS011;4276;49.354;6.804;2023-08-01T10:53:09;4.10;;;2.45;;
8478;SDS011;4276;49.354;6.804;2023-08-01T10:55:43;2.47;;;2.28;;
8478;SDS011;4276;49.354;6.804;2023-08-01T10:58:11;3.75;;;2.33;;
8478;SDS011;4276;49.354;6.804;2023-08-01T11:00:38;3.88;;;2.58;;
8478;SDS011;4276;49.354;6.804;2023-08-01T11:03:06;2.90;;;2.20;;
8478;SDS011;4276;49.354;6.804;2023-08-01T11:05:32;3.35;;;2.30;;
8478;SDS011;4276;49.354;6.804;2023-08-01T11:08:00;2.45;;;2.25;;
8478;SDS011;4276;49.354;6.804;2023-08-01T11:10:31;2.47;;;2.28;;
8478;SDS011;4276;49.354;6.804;2023-08-01T11:12:58;3.70;;;2.65;;
8478;SDS011;4276;49.354;6.804;2023-08-01T11:15:25;2.95;;;2.60;;
8478;SDS011;4276;49.354;6.804;2023-08-01T11:17:53;3.10;;;1.88;;
8478;SDS011;4276;49.354;6.804;2023-08-01T11:20:21;2.30;;;2.10;;
8478;SDS011;4276;49.354;6.804;2023-08-01T11:22:52;2.75;;;2.38;;
8478;SDS011;4276;49.354;6.804;2023-08-01T11:25:21;2.38;;;2.17;;
8478;SDS011;4276;49.354;6.804;2023-08-01T11:28:05;2.17;;;1.80;;
8478;SDS011;4276;49.354;6.804;2023-08-01T11:30:38;2.80;;;2.50;;
8478;SDS011;4276;49.354;6.804;2023-08-01T11:33:15;3.08;;;2.20;;
8478;SDS011;4276;49.354;6.804;2023-08-01T11:35:43;2.58;;;2.38;;
8478;SDS011;4276;49.354;6.804;2023-08-01T11:38:10;2.15;;;1.95;;
8478;SDS011;4276;49.354;6.804;2023-08-01T11:40:37;2.38;;;2.13;;
8478;SDS011;4276;49.354;6.804;2023-08-01T11:43:04;2.38;;;2.17;;
8478;SDS011;4276;49.354;6.804;2023-08-01T11:45:31;2.00;;;1.77;;
8478;SDS011;4276;49.354;6.804;2023-08-01T11:47:57;3.67;;;2.20;;
8478;SDS011;4276;49.354;6.804;2023-08-01T11:50:24;3.92;;;2.33;;
8478;SDS011;4276;49.354;6.804;2023-08-01T11:52:52;3.15;;;2.70;;
8478;SDS011;4276;49.354;6.804;2023-08-01T11:55:26;4.93;;;3.17;;
8478;SDS011;4276;49.354;6.804;2023-08-01T11:57:53;3.35;;;2.92;;
8478;SDS011;4276;49.354;6.804;2023-08-01T12:00:27;1.98;;;1.80;;
8478;SDS011;4276;49.354;6.804;2023-08-01T12:03:07;3.75;;;2.40;;
8478;SDS011;4276;49.354;6.804;2023-08-01T12:05:39;2.45;;;1.88;;
8478;SDS011;4276;49.354;6.804;2023-08-01T12:08:12;3.70;;;2.22;;
8478;SDS011;4276;49.354;6.804;2023-08-01T12:13:18;2.50;;;2.00;;
8478;SDS011;4276;49.354;6.804;2023-08-01T12:15:47;3.88;;;2.45;;
8478;SDS011;4276;49.354;6.804;2023-08-01T12:21:08;2.20;;;2.00;;
8478;SDS011;4276;49.354;6.804;2023-08-01T12:23:35;2.70;;;2.50;;
8478;SDS011;4276;49.354;6.804;2023-08-01T12:26:02;2.45;;;2.25;;
8478;SDS011;4276;49.354;6.804;2023-08-01T12:28:28;2.20;;;2.00;;
8478;SDS011;4276;49.354;6.804;2023-08-01T12:30:55;3.10;;;2.70;;
8478;SDS011;4276;49.354;6.804;2023-08-01T12:33:25;5.05;;;2.50;;
8478;SDS011;4276;49.354;6.804;2023-08-01T12:35:53;4.38;;;2.28;;
8478;SDS011;4276;49.354;6.804;2023-08-01T12:38:20;2.42;;;2.10;;
8478;SDS011;4276;49.354;6.804;2023-08-01T12:40:47;3.30;;;2.15;;
8478;SDS011;4276;49.354;6.804;2023-08-01T12:43:16;3.53;;;2.15;;
8478;SDS011;4276;49.354;6.804;2023-08-01T12:45:43;2.05;;;1.85;;
8478;SDS011;4276;49.354;6.804;2023-08-01T12:48:10;3.15;;;2.28;;
8478;SDS011;4276;49.354;6.804;2023-08-01T12:50:36;3.38;;;2.20;;
8478;SDS011;4276;49.354;6.804;2023-08-01T12:53:03;2.30;;;2.08;;
8478;SDS011;4276;49.354;6.804;2023-08-01T12:55:29;2.20;;;2.00;;
8478;SDS011;4276;49.354;6.804;2023-08-01T12:57:56;3.05;;;1.73;;
8478;SDS011;4276;49.354;6.804;2023-08-01T13:00:24;2.75;;;1.80;;
8478;SDS011;4276;49.354;6.804;2023-08-01T13:02:50;2.33;;;1.80;;
8478;SDS011;4276;49.354;6.804;2023-08-01T13:05:17;1.88;;;1.70;;
8478;SDS011;4276;49.354;6.804;2023-08-01T13:07:44;2.30;;;2.05;;
8478;SDS011;4276;49.354;6.804;2023-08-01T13:10:11;3.42;;;2.00;;
8478;SDS011;4276;49.354;6.804;2023-08-01T13:12:38;2.63;;;2.15;;
8478;SDS011;4276;49.354;6.804;2023-08-01T13:15:07;2.10;;;1.90;;
8478;SDS011;4276;49.354;6.804;2023-08-01T13:17:43;3.17;;;1.92;;
8478;SDS011;4276;49.354;6.804;2023-08-01T13:20:11;2.85;;;1.90;;
8478;SDS011;4276;49.354;6.804;2023-08-01T13:22:37;3.00;;;2.30;;
8478;SDS011;4276;49.354;6.804;2023-08-01T13:25:08;3.28;;;2.50;;
8478;SDS011;4276;49.354;6.804;2023-08-01T13:27:37;2.50;;;2.15;;
8478;SDS011;4276;49.354;6.804;2023-08-01T13:30:06;3.22;;;2.40;;
8478;SDS011;4276;49.354;6.804;2023-08-01T13:32:34;2.70;;;2.20;;
8478;SDS011;4276;49.354;6.804;2023-08-01T13:35:02;2.95;;;2.05;;
8478;SDS011;4276;49.354;6.804;2023-08-01T13:37:30;2.08;;;1.92;;
8478;SDS011;4276;49.354;6.804;2023-08-01T13:39:58;3.53;;;1.98;;
8478;SDS011;4276;49.354;6.804;2023-08-01T13:42:24;1.55;;;1.45;;
8478;SDS011;4276;49.354;6.804;2023-08-01T13:44:53;2.15;;;1.85;;
8478;SDS011;4276;49.354;6.804;2023-08-01T13:47:20;2.67;;;1.90;;
8478;SDS011;4276;49.354;6.804;2023-08-01T13:49:47;1.70;;;1.60;;
8478;SDS011;4276;49.354;6.804;2023-08-01T13:52:16;3.35;;;2.15;;
8478;SDS011;4276;49.354;6.804;2023-08-01T13:54:43;1.70;;;1.60;;
8478;SDS011;4276;49.354;6.804;2023-08-01T13:57:10;2.70;;;1.90;;
8478;SDS011;4276;49.354;6.804;2023-08-01T13:59:36;2.90;;;2.30;;
8478;SDS011;4276;49.354;6.804;2023-08-01T14:02:03;2.22;;;1.85;;
8478;SDS011;4276;49.354;6.804;2023-08-01T14:04:32;2.55;;;1.90;;
8478;SDS011;4276;49.354;6.804;2023-08-01T14:07:05;3.60;;;2.17;;
8478;SDS011;4276;49.354;6.804;2023-08-01T14:09:31;2.55;;;1.88;;
8478;SDS011;4276;49.354;6.804;2023-08-01T14:11:59;3.05;;;2.20;;
8478;SDS011;4276;49.354;6.804;2023-08-01T14:14:25;2.03;;;1.92;;
8478;SDS011;4276;49.354;6.804;2023-08-01T14:16:56;3.50;;;2.30;;
8478;SDS011;4276;49.354;6.804;2023-08-01T14:19:25;2.03;;;1.88;;
8478;SDS011;4276;49.354;6.804;2023-08-01T14:21:56;2.13;;;1.92;;
8478;SDS011;4276;49.354;6.804;2023-08-01T14:24:24;2.45;;;1.63;;
8478;SDS011;4276;49.354;6.804;2023-08-01T14:26:56;3.38;;;2.10;;
8478;SDS011;4276;49.354;6.804;2023-08-01T14:29:22;3.33;;;2.60;;
8478;SDS011;4276;49.354;6.804;2023-08-01T14:31:49;4.57;;;3.10;;
8478;SDS011;4276;49.354;6.804;2023-08-01T14:34:16;6.32;;;3.42;;
8478;SDS011;4276;49.354;6.804;2023-08-01T14:36:42;5.47;;;3.45;;
8478;SDS011;4276;49.354;6.804;2023-08-01T14:39:09;4.15;;;3.25;;
8478;SDS011;4276;49.354;6.804;2023-08-01T14:41:38;3.05;;;2.80;;
8478;SDS011;4276;49.354;6.804;2023-08-01T14:44:24;3.28;;;2.13;;
8478;SDS011;4276;49.354;6.804;2023-08-01T14:46:51;3.13;;;2.65;;
8478;SDS011;4276;49.354;6.804;2023-08-01T14:49:20;2.70;;;2.33;;
8478;SDS011;4276;49.354;6.804;2023-08-01T14:51:48;3.00;;;2.60;;
8478;SDS011;4276;49.354;6.804;2023-08-01T14:54:16;3.33;;;2.47;;
8478;SDS011;4276;49.354;6.804;2023-08-01T14:57:05;2.40;;;2.00;;
8478;SDS011;4276;49.354;6.804;2023-08-01T14:59:32;2.47;;;2.05;;
8478;SDS011;4276;49.354;6.804;2023-08-01T15:01:59;3.45;;;2.55;;
8478;SDS011;4276;49.354;6.804;2023-08-01T15:04:29;4.30;;;2.60;;
8478;SDS011;4276;49.354;6.804;2023-08-01T15:06:55;4.15;;;2.67;;
8478;SDS011;4276;49.354;6.804;2023-08-01T15:09:22;5.53;;;2.25;;
8478;SDS011;4276;49.354;6.804;2023-08-01T15:11:48;4.95;;;2.42;;
8478;SDS011;4276;49.354;6.804;2023-08-01T15:14:15;2.85;;;2.22;;
8478;SDS011;4276;49.354;6.804;2023-08-01T15:16:42;3.70;;;2.35;;
8478;SDS011;4276;49.354;6.804;2023-08-01T15:19:09;2.60;;;2.40;;
8478;SDS011;4276;49.354;6.804;2023-08-01T15:21:35;4.10;;;2.20;;
8478;SDS011;4276;49.354;6.804;2023-08-01T15:24:02;2.33;;;2.10;;
8478;SDS011;4276;49.354;6.804;2023-08-01T15:26:29;2.92;;;2.28;;